aviador You're here:

KGKJ Decoded Metar

MEADVILLE in PA, USA
Report Time2017-08-16 18:53:00
UTC Time2017-08-16 19:33:04
Flight Rules vfr VFR
Wind030° at 06 kt
W.Decomp.*RWY 07: 5.1 kt HW 3.2 kt LCW
W.Rank030° ranks 20
Current wind is above 030° avg. (5.9)
Visibility9999 m
Phenomena:N/A
Clouds:Scattered 050 Hf
Expected CloudBase > 5,200 ft AGL from Temp-Dew spread
CeilingNone
Temp26°C (ISA +14)
Dew Point13°C (45% RH)
AAT24.8°C
QNH1019 hPa
Density Alt2,995 ft
Elevation1,404 ft
Report Wrong Elevation
Raw Report
METAR KGKJ 161853Z AUTO 03006KT 10SM SCT050 26/13 A3009 RMK AO2 SLP181
T02610128=

Extra information for KGKJ:More info

Metar Taf Metar & Taf Last 4 Metars F.Rules Stats Wind Profile Meteogram Temp Stats Airport Information Weather charts Add Link Nearby VenuesMetar ALERT Operation Metar Decoded Social comments

AIRNAV info for KGKJ